Terminal Aerodrome Forecast
Issued by NWS

Home | Current Version | Previous Version | Text Only | Print | Product List | Glossary On
Versions: 1 2 3 4 5 6 7 8 9 10 11 12 13 14 15 16 17 18 19 20 21 22 23 24 25 26
238
FTUS46 KMTR 221726
TAFSFO
TAF
KSFO 221726Z 2218/2324 VRB04KT P6SM SKC
     FM222000 33008KT P6SM SKC
     FM222100 30013KT P6SM SKC
     FM230500 29009KT P6SM SKC
     FM231100 26008KT 5SM HZ FEW010
     FM231600 28007KT P6SM SKC
     FM232100 32010KT P6SM SKC=

USA.gov is the U.S. government's official web portal to all federal, state and local government web resources and services.